CFG215 EDDS-EGLL
Flight info
| Callsign | CFG215 |
|---|---|
| Flight time | 1h 15m |
| Altitude | 36000 |
| Route | VESID4B/25 VESID Y127 BANIM L608 LIRSU DCT DENUT L608 LOGAN |
| Aircraft | A320/M-SDE3FGHIRWY/LB1 |
Departure
| Time | 2026-05-06 17:18 |
|---|---|
| Airport | Stuttgart Airport (EDDS) |
Arrival
| Time | 2026-05-06 18:33 |
|---|---|
| Airport | London Heathrow Airport (EGLL) |
| Time | Latitude | Longitude | Altitude | Speed | Heading |
|---|---|---|---|---|---|
| 2026-05-06 16:58 | 48.68983 | 9.19838 | 1299 ft | 0 kts | 345° |
| 2026-05-06 17:04 | 48.68976 | 9.19841 | 1299 ft | 3 kts | 345° |
| 2026-05-06 17:05 | 48.68959 | 9.19848 | 1297 ft | 3 kts | 345° |
| 2026-05-06 17:05 | 48.68941 | 9.19855 | 1296 ft | 3 kts | 345° |
| 2026-05-06 17:05 | 48.68924 | 9.19862 | 1295 ft | 3 kts | 4° |
| 2026-05-06 17:05 | 48.68906 | 9.19854 | 1293 ft | 3 kts | 42° |
| 2026-05-06 17:06 | 48.68898 | 9.19841 | 1293 ft | 0 kts | 63° |
| 2026-05-06 17:09 | 48.68904 | 9.19856 | 1293 ft | 9 kts | 60° |
| 2026-05-06 17:09 | 48.68961 | 9.19989 | 1293 ft | 15 kts | 60° |
| 2026-05-06 17:09 | 48.68998 | 9.20115 | 1289 ft | 12 kts | 70° |
| 2026-05-06 17:09 | 48.69023 | 9.20223 | 1287 ft | 10 kts | 72° |
| 2026-05-06 17:10 | 48.69043 | 9.20330 | 1285 ft | 12 kts | 74° |
| 2026-05-06 17:10 | 48.69059 | 9.20449 | 1279 ft | 13 kts | 90° |
| 2026-05-06 17:10 | 48.69006 | 9.20557 | 1275 ft | 14 kts | 133° |
| 2026-05-06 17:10 | 48.68993 | 9.20579 | 1273 ft | 0 kts | 133° |
| 2026-05-06 17:11 | 48.68991 | 9.20581 | 1273 ft | 0 kts | 134° |
| 2026-05-06 17:11 | 48.68982 | 9.20595 | 1272 ft | 9 kts | 133° |
| 2026-05-06 17:11 | 48.68971 | 9.20754 | 1271 ft | 14 kts | 54° |
| 2026-05-06 17:11 | 48.68991 | 9.20860 | 1273 ft | 9 kts | 76° |
| 2026-05-06 17:12 | 48.69016 | 9.20998 | 1264 ft | 22 kts | 73° |
| 2026-05-06 17:12 | 48.69080 | 9.21245 | 1260 ft | 27 kts | 45° |
| 2026-05-06 17:12 | 48.69114 | 9.21448 | 1263 ft | 19 kts | 105° |
| 2026-05-06 17:12 | 48.69146 | 9.21661 | 1252 ft | 25 kts | 69° |
| 2026-05-06 17:13 | 48.69200 | 9.21954 | 1245 ft | 33 kts | 70° |
| 2026-05-06 17:13 | 48.69272 | 9.22307 | 1232 ft | 37 kts | 84° |
| 2026-05-06 17:13 | 48.69345 | 9.22698 | 1227 ft | 40 kts | 74° |
| 2026-05-06 17:13 | 48.69418 | 9.23121 | 1221 ft | 43 kts | 74° |
| 2026-05-06 17:14 | 48.69486 | 9.23514 | 1209 ft | 37 kts | 73° |
| 2026-05-06 17:14 | 48.69567 | 9.23876 | 1202 ft | 36 kts | 73° |
| 2026-05-06 17:14 | 48.69608 | 9.24193 | 1193 ft | 18 kts | 116° |
| 2026-05-06 17:14 | 48.69542 | 9.24306 | 1191 ft | 10 kts | 163° |
| 2026-05-06 17:15 | 48.69469 | 9.24330 | 1188 ft | 11 kts | 173° |
| 2026-05-06 17:15 | 48.69391 | 9.24301 | 1190 ft | 15 kts | 217° |
| 2026-05-06 17:15 | 48.69365 | 9.24227 | 1191 ft | 2 kts | 245° |
| 2026-05-06 17:15 | 48.69363 | 9.24226 | 1191 ft | 0 kts | 224° |
| 2026-05-06 17:16 | 48.69361 | 9.24213 | 1191 ft | 1 kts | 265° |
| 2026-05-06 17:16 | 48.69343 | 9.24079 | 1192 ft | 22 kts | 253° |
| 2026-05-06 17:17 | 48.69298 | 9.23836 | 1199 ft | 41 kts | 252° |
| 2026-05-06 17:17 | 48.69155 | 9.23083 | 1224 ft | 104 kts | 254° |
| 2026-05-06 17:17 | 48.68902 | 9.21774 | 1258 ft | 153 kts | 253° |
| 2026-05-06 17:17 | 48.68595 | 9.20172 | 1744 ft | 153 kts | 256° |
| 2026-05-06 17:18 | 48.68361 | 9.18591 | 2424 ft | 157 kts | 257° |
| 2026-05-06 17:18 | 48.68119 | 9.16927 | 2983 ft | 167 kts | 257° |
| 2026-05-06 17:18 | 48.67865 | 9.15160 | 3503 ft | 178 kts | 254° |
| 2026-05-06 17:18 | 48.67489 | 9.13291 | 3990 ft | 192 kts | 251° |
| 2026-05-06 17:19 | 48.67117 | 9.11283 | 4518 ft | 206 kts | 265° |
| 2026-05-06 17:19 | 48.67524 | 9.09185 | 5030 ft | 218 kts | 299° |
| 2026-05-06 17:19 | 48.68467 | 9.07296 | 5516 ft | 233 kts | 313° |
| 2026-05-06 17:19 | 48.69927 | 9.06040 | 6049 ft | 254 kts | 340° |
| 2026-05-06 17:20 | 48.71679 | 9.05277 | 6547 ft | 269 kts | 339° |
| 2026-05-06 17:20 | 48.73512 | 9.04403 | 7050 ft | 281 kts | 338° |
| 2026-05-06 17:20 | 48.75376 | 9.03477 | 7546 ft | 283 kts | 338° |
| 2026-05-06 17:20 | 48.77248 | 9.02529 | 8057 ft | 285 kts | 338° |
| 2026-05-06 17:21 | 48.79134 | 9.01564 | 8574 ft | 288 kts | 337° |
| 2026-05-06 17:21 | 48.81023 | 9.00522 | 9097 ft | 290 kts | 336° |
| 2026-05-06 17:21 | 48.82909 | 8.99412 | 9740 ft | 293 kts | 335° |
| 2026-05-06 17:21 | 48.84813 | 8.98265 | 10358 ft | 297 kts | 335° |
| 2026-05-06 17:22 | 48.86759 | 8.97091 | 10977 ft | 304 kts | 335° |
| 2026-05-06 17:22 | 48.88742 | 8.95903 | 11605 ft | 310 kts | 335° |
| 2026-05-06 17:22 | 48.90767 | 8.94694 | 12246 ft | 315 kts | 335° |
| 2026-05-06 17:22 | 48.92824 | 8.93473 | 12898 ft | 320 kts | 336° |
| 2026-05-06 17:23 | 48.94920 | 8.92232 | 13571 ft | 325 kts | 336° |
| 2026-05-06 17:23 | 48.97064 | 8.90963 | 13909 ft | 340 kts | 336° |
| 2026-05-06 17:23 | 48.99332 | 8.89609 | 13971 ft | 359 kts | 336° |
| 2026-05-06 17:23 | 49.01671 | 8.88212 | 13999 ft | 361 kts | 336° |
| 2026-05-06 17:24 | 49.04015 | 8.86812 | 14001 ft | 361 kts | 336° |
| 2026-05-06 17:24 | 49.06330 | 8.85430 | 13998 ft | 362 kts | 336° |
| 2026-05-06 17:24 | 49.08671 | 8.84032 | 13999 ft | 361 kts | 336° |
| 2026-05-06 17:24 | 49.11011 | 8.82632 | 13999 ft | 361 kts | 336° |
| 2026-05-06 17:25 | 49.13332 | 8.81185 | 13998 ft | 360 kts | 332° |
| 2026-05-06 17:25 | 49.15472 | 8.79238 | 13997 ft | 357 kts | 321° |
| 2026-05-06 17:25 | 49.17328 | 8.76749 | 13995 ft | 354 kts | 310° |
| 2026-05-06 17:25 | 49.18860 | 8.73815 | 13991 ft | 352 kts | 301° |
| 2026-05-06 17:26 | 49.20154 | 8.70651 | 13992 ft | 351 kts | 300° |
| 2026-05-06 17:26 | 49.21450 | 8.67475 | 13990 ft | 352 kts | 300° |
| 2026-05-06 17:26 | 49.22748 | 8.64308 | 14208 ft | 351 kts | 300° |
| 2026-05-06 17:26 | 49.24058 | 8.61119 | 14823 ft | 356 kts | 300° |
| 2026-05-06 17:27 | 49.25379 | 8.57901 | 15451 ft | 359 kts | 300° |
| 2026-05-06 17:27 | 49.26711 | 8.54647 | 16076 ft | 362 kts | 300° |
| 2026-05-06 17:27 | 49.28047 | 8.51371 | 16723 ft | 363 kts | 300° |
| 2026-05-06 17:27 | 49.29384 | 8.48081 | 17381 ft | 364 kts | 300° |
| 2026-05-06 17:28 | 49.30720 | 8.44785 | 18056 ft | 365 kts | 300° |
| 2026-05-06 17:28 | 49.32057 | 8.41490 | 18667 ft | 365 kts | 300° |
| 2026-05-06 17:28 | 49.33396 | 8.38187 | 19243 ft | 364 kts | 300° |
| 2026-05-06 17:28 | 49.34733 | 8.34897 | 19867 ft | 364 kts | 300° |
| 2026-05-06 17:29 | 49.36069 | 8.31604 | 20494 ft | 363 kts | 300° |
| 2026-05-06 17:29 | 49.37398 | 8.28322 | 21138 ft | 361 kts | 300° |
| 2026-05-06 17:29 | 49.38715 | 8.25060 | 21790 ft | 359 kts | 300° |
| 2026-05-06 17:29 | 49.40023 | 8.21813 | 22450 ft | 356 kts | 300° |
| 2026-05-06 17:30 | 49.41315 | 8.18595 | 23147 ft | 352 kts | 300° |
| 2026-05-06 17:30 | 49.42594 | 8.15403 | 23772 ft | 348 kts | 300° |
| 2026-05-06 17:30 | 49.43856 | 8.12257 | 24364 ft | 344 kts | 300° |
| 2026-05-06 17:30 | 49.45100 | 8.09156 | 24960 ft | 338 kts | 300° |
| 2026-05-06 17:31 | 49.46323 | 8.06111 | 25577 ft | 331 kts | 300° |
| 2026-05-06 17:31 | 49.47533 | 8.03096 | 25998 ft | 333 kts | 300° |
| 2026-05-06 17:31 | 49.48750 | 8.00058 | 26304 ft | 336 kts | 300° |
| 2026-05-06 17:31 | 49.49978 | 7.96980 | 26643 ft | 339 kts | 300° |
| 2026-05-06 17:32 | 49.51212 | 7.93878 | 26987 ft | 341 kts | 300° |
| 2026-05-06 17:32 | 49.52451 | 7.90761 | 27324 ft | 343 kts | 300° |
| 2026-05-06 17:32 | 49.53701 | 7.87610 | 27662 ft | 345 kts | 300° |
| 2026-05-06 17:32 | 49.54951 | 7.84455 | 27988 ft | 347 kts | 300° |
| 2026-05-06 17:33 | 49.56217 | 7.81260 | 28319 ft | 350 kts | 300° |
| 2026-05-06 17:33 | 49.57489 | 7.78055 | 28627 ft | 352 kts | 300° |
| 2026-05-06 17:33 | 49.58771 | 7.74826 | 28954 ft | 354 kts | 300° |
| 2026-05-06 17:33 | 49.60060 | 7.71576 | 29251 ft | 357 kts | 300° |
| 2026-05-06 17:34 | 49.61355 | 7.68297 | 29571 ft | 358 kts | 300° |
| 2026-05-06 17:34 | 49.62647 | 7.65010 | 29899 ft | 359 kts | 300° |
| 2026-05-06 17:34 | 49.63930 | 7.61746 | 30121 ft | 361 kts | 300° |
| 2026-05-06 17:34 | 49.65241 | 7.58419 | 30379 ft | 363 kts | 299° |
| 2026-05-06 17:35 | 49.66554 | 7.55081 | 30644 ft | 364 kts | 299° |
| 2026-05-06 17:35 | 49.67870 | 7.51728 | 30900 ft | 366 kts | 299° |
| 2026-05-06 17:35 | 49.69190 | 7.48354 | 31152 ft | 367 kts | 299° |
| 2026-05-06 17:36 | 49.71840 | 7.41579 | 31682 ft | 370 kts | 299° |
| 2026-05-06 17:36 | 49.73171 | 7.38170 | 31943 ft | 371 kts | 298° |
| 2026-05-06 17:36 | 49.74505 | 7.34755 | 32200 ft | 372 kts | 298° |
| 2026-05-06 17:36 | 49.75846 | 7.31319 | 32460 ft | 374 kts | 298° |
| 2026-05-06 17:37 | 49.76735 | 7.29039 | 32633 ft | 374 kts | 298° |
| 2026-05-06 17:37 | 49.78078 | 7.25582 | 32902 ft | 376 kts | 298° |
| 2026-05-06 17:37 | 49.79423 | 7.22107 | 33148 ft | 377 kts | 298° |
| 2026-05-06 17:37 | 49.80771 | 7.18622 | 33390 ft | 378 kts | 298° |
| 2026-05-06 17:38 | 49.82122 | 7.15122 | 33626 ft | 379 kts | 298° |
| 2026-05-06 17:38 | 49.83481 | 7.11605 | 33860 ft | 381 kts | 298° |
| 2026-05-06 17:38 | 49.84843 | 7.08079 | 34047 ft | 382 kts | 298° |
| 2026-05-06 17:38 | 49.86210 | 7.04533 | 34226 ft | 384 kts | 298° |
| 2026-05-06 17:39 | 49.87566 | 7.01018 | 34411 ft | 385 kts | 298° |
| 2026-05-06 17:39 | 49.88939 | 6.97457 | 34609 ft | 385 kts | 298° |
| 2026-05-06 17:39 | 49.90313 | 6.93881 | 34801 ft | 386 kts | 298° |
| 2026-05-06 17:39 | 49.91686 | 6.90297 | 34991 ft | 387 kts | 298° |
| 2026-05-06 17:40 | 49.93058 | 6.86705 | 35179 ft | 388 kts | 298° |
| 2026-05-06 17:40 | 49.94451 | 6.83052 | 35087 ft | 397 kts | 298° |
| 2026-05-06 17:40 | 49.97290 | 6.75592 | 35335 ft | 401 kts | 298° |
| 2026-05-06 17:41 | 49.98710 | 6.71861 | 35529 ft | 401 kts | 298° |
| 2026-05-06 17:41 | 50.00131 | 6.68129 | 35705 ft | 402 kts | 298° |
| 2026-05-06 17:41 | 50.01557 | 6.64382 | 35816 ft | 404 kts | 298° |
| 2026-05-06 17:41 | 50.02994 | 6.60596 | 35850 ft | 409 kts | 298° |
| 2026-05-06 17:42 | 50.05917 | 6.52885 | 35837 ft | 419 kts | 298° |
| 2026-05-06 17:42 | 50.08902 | 6.44968 | 35838 ft | 429 kts | 298° |
| 2026-05-06 17:43 | 50.11945 | 6.36864 | 35847 ft | 438 kts | 298° |
| 2026-05-06 17:43 | 50.15040 | 6.28589 | 35852 ft | 446 kts | 298° |
| 2026-05-06 17:44 | 50.18174 | 6.20205 | 35866 ft | 447 kts | 298° |
| 2026-05-06 17:44 | 50.21281 | 6.11869 | 35869 ft | 447 kts | 298° |
| 2026-05-06 17:45 | 50.24401 | 6.03464 | 35876 ft | 447 kts | 298° |
| 2026-05-06 17:45 | 50.27508 | 5.95069 | 35882 ft | 447 kts | 298° |
| 2026-05-06 17:46 | 50.30614 | 5.86648 | 35898 ft | 446 kts | 298° |
| 2026-05-06 17:46 | 50.33707 | 5.78236 | 35902 ft | 446 kts | 298° |
| 2026-05-06 17:47 | 50.36792 | 5.69811 | 35912 ft | 445 kts | 298° |
| 2026-05-06 17:47 | 50.39862 | 5.61390 | 35909 ft | 445 kts | 297° |
| 2026-05-06 17:48 | 50.42921 | 5.52952 | 35914 ft | 445 kts | 297° |
| 2026-05-06 17:48 | 50.45977 | 5.44515 | 35910 ft | 445 kts | 298° |
| 2026-05-06 17:49 | 50.49034 | 5.36081 | 35915 ft | 444 kts | 297° |
| 2026-05-06 17:49 | 50.52087 | 5.27640 | 35913 ft | 444 kts | 297° |
| 2026-05-06 17:50 | 50.55120 | 5.19191 | 35915 ft | 443 kts | 297° |
| 2026-05-06 17:50 | 50.58142 | 5.10739 | 35914 ft | 443 kts | 297° |
| 2026-05-06 17:51 | 50.61160 | 5.02270 | 35915 ft | 443 kts | 297° |
| 2026-05-06 17:51 | 50.64146 | 4.93862 | 35915 ft | 443 kts | 297° |
| 2026-05-06 17:52 | 50.67148 | 4.85393 | 35921 ft | 442 kts | 297° |
| 2026-05-06 17:52 | 50.70142 | 4.76914 | 35925 ft | 442 kts | 297° |
| 2026-05-06 17:53 | 50.73129 | 4.68426 | 35932 ft | 442 kts | 297° |
| 2026-05-06 17:53 | 50.76098 | 4.59967 | 35958 ft | 440 kts | 297° |
| 2026-05-06 17:54 | 50.79056 | 4.51514 | 35944 ft | 440 kts | 297° |
| 2026-05-06 17:54 | 50.82021 | 4.43035 | 35943 ft | 440 kts | 297° |
| 2026-05-06 17:55 | 50.84947 | 4.34609 | 35939 ft | 439 kts | 297° |
| 2026-05-06 17:55 | 50.87883 | 4.26123 | 35934 ft | 439 kts | 297° |
| 2026-05-06 17:56 | 50.90814 | 4.17630 | 35931 ft | 438 kts | 297° |
| 2026-05-06 17:56 | 50.93728 | 4.09146 | 35930 ft | 438 kts | 297° |
| 2026-05-06 17:57 | 50.96632 | 4.00658 | 35929 ft | 438 kts | 297° |
| 2026-05-06 17:57 | 50.99533 | 3.92161 | 35930 ft | 438 kts | 297° |
| 2026-05-06 17:58 | 51.02429 | 3.83665 | 35924 ft | 437 kts | 297° |
| 2026-05-06 17:58 | 51.05340 | 3.75104 | 35903 ft | 444 kts | 297° |
| 2026-05-06 17:59 | 51.08283 | 3.66395 | 35906 ft | 449 kts | 297° |
| 2026-05-06 17:59 | 51.11235 | 3.57632 | 35909 ft | 453 kts | 297° |
| 2026-05-06 18:00 | 51.14208 | 3.48758 | 35915 ft | 455 kts | 297° |
| 2026-05-06 18:00 | 51.17192 | 3.39820 | 35933 ft | 456 kts | 297° |
| 2026-05-06 18:01 | 51.20173 | 3.30892 | 35945 ft | 455 kts | 297° |
| 2026-05-06 18:01 | 51.23136 | 3.21993 | 35961 ft | 455 kts | 297° |
| 2026-05-06 18:02 | 51.26077 | 3.13133 | 35973 ft | 454 kts | 297° |
| 2026-05-06 18:02 | 51.29024 | 3.04202 | 35989 ft | 454 kts | 296° |
| 2026-05-06 18:03 | 51.31947 | 2.95290 | 35993 ft | 454 kts | 296° |
| 2026-05-06 18:03 | 51.34869 | 2.86352 | 35989 ft | 453 kts | 296° |
| 2026-05-06 18:04 | 51.37789 | 2.77408 | 35989 ft | 453 kts | 296° |
| 2026-05-06 18:04 | 51.40706 | 2.68447 | 35986 ft | 453 kts | 296° |
| 2026-05-06 18:05 | 51.43604 | 2.59502 | 35978 ft | 453 kts | 296° |
| 2026-05-06 18:05 | 51.46504 | 2.50519 | 35975 ft | 453 kts | 296° |
| 2026-05-06 18:06 | 51.49373 | 2.41607 | 35971 ft | 453 kts | 296° |
| 2026-05-06 18:06 | 51.52257 | 2.32610 | 35973 ft | 453 kts | 296° |
| 2026-05-06 18:07 | 51.55130 | 2.23607 | 35977 ft | 453 kts | 296° |
| 2026-05-06 18:07 | 51.57999 | 2.14575 | 35979 ft | 452 kts | 296° |
| 2026-05-06 18:08 | 51.60862 | 2.05556 | 35978 ft | 453 kts | 296° |
| 2026-05-06 18:08 | 51.63707 | 1.96526 | 35978 ft | 453 kts | 296° |
| 2026-05-06 18:09 | 51.66553 | 1.87474 | 35990 ft | 453 kts | 296° |
| 2026-05-06 18:09 | 51.69374 | 1.78476 | 35993 ft | 453 kts | 296° |
| 2026-05-06 18:10 | 51.72223 | 1.69362 | 35998 ft | 453 kts | 296° |
| 2026-05-06 18:10 | 51.74332 | 1.59885 | 35985 ft | 449 kts | 276° |
| 2026-05-06 18:11 | 51.74375 | 1.54927 | 35990 ft | 449 kts | 264° |
| 2026-05-06 18:11 | 51.74054 | 1.49919 | 35988 ft | 449 kts | 264° |
| 2026-05-06 18:11 | 51.73400 | 1.39880 | 35620 ft | 451 kts | 264° |
| 2026-05-06 18:12 | 51.73071 | 1.34885 | 35029 ft | 446 kts | 264° |
| 2026-05-06 18:12 | 51.72742 | 1.29917 | 34450 ft | 445 kts | 264° |
| 2026-05-06 18:12 | 51.72413 | 1.24986 | 33869 ft | 440 kts | 264° |
| 2026-05-06 18:12 | 51.72085 | 1.20107 | 33201 ft | 435 kts | 264° |
| 2026-05-06 18:13 | 51.71761 | 1.15291 | 32548 ft | 430 kts | 264° |
| 2026-05-06 18:13 | 51.71439 | 1.10518 | 31919 ft | 426 kts | 264° |
| 2026-05-06 18:13 | 51.71120 | 1.05781 | 31298 ft | 422 kts | 264° |
| 2026-05-06 18:13 | 51.70803 | 1.01097 | 30705 ft | 419 kts | 264° |
| 2026-05-06 18:14 | 51.70486 | 0.96449 | 30101 ft | 415 kts | 264° |
| 2026-05-06 18:14 | 51.70167 | 0.91821 | 29072 ft | 419 kts | 264° |
| 2026-05-06 18:14 | 51.69842 | 0.87124 | 27965 ft | 424 kts | 264° |
| 2026-05-06 18:14 | 51.69512 | 0.82382 | 26886 ft | 425 kts | 264° |
| 2026-05-06 18:15 | 51.69186 | 0.77749 | 25869 ft | 415 kts | 263° |
| 2026-05-06 18:15 | 51.68860 | 0.73164 | 24882 ft | 407 kts | 263° |
| 2026-05-06 18:15 | 51.68537 | 0.68687 | 23921 ft | 399 kts | 263° |
| 2026-05-06 18:15 | 51.68220 | 0.64277 | 22870 ft | 393 kts | 263° |
| 2026-05-06 18:16 | 51.67913 | 0.59985 | 21797 ft | 388 kts | 264° |
| 2026-05-06 18:16 | 51.67600 | 0.55646 | 20695 ft | 384 kts | 264° |
| 2026-05-06 18:16 | 51.67290 | 0.51380 | 19633 ft | 382 kts | 264° |
| 2026-05-06 18:16 | 51.66984 | 0.47198 | 18620 ft | 379 kts | 264° |
| 2026-05-06 18:17 | 51.66675 | 0.42937 | 17505 ft | 377 kts | 264° |
| 2026-05-06 18:17 | 51.66371 | 0.38759 | 16388 ft | 374 kts | 264° |
| 2026-05-06 18:17 | 51.66070 | 0.34669 | 15330 ft | 371 kts | 264° |
| 2026-05-06 18:17 | 51.65766 | 0.30557 | 14289 ft | 368 kts | 264° |
| 2026-05-06 18:18 | 51.65462 | 0.26477 | 13208 ft | 364 kts | 264° |
| 2026-05-06 18:18 | 51.65158 | 0.22450 | 12101 ft | 360 kts | 264° |
| 2026-05-06 18:18 | 51.64858 | 0.18494 | 11035 ft | 355 kts | 264° |
| 2026-05-06 18:18 | 51.64502 | 0.14586 | 9998 ft | 350 kts | 262° |
| 2026-05-06 18:19 | 51.64094 | 0.10741 | 9297 ft | 334 kts | 261° |
| 2026-05-06 18:19 | 51.63721 | 0.07260 | 9089 ft | 307 kts | 261° |
| 2026-05-06 18:19 | 51.63372 | 0.04010 | 8991 ft | 281 kts | 261° |
| 2026-05-06 18:19 | 51.63041 | 0.00931 | 8998 ft | 280 kts | 261° |
| 2026-05-06 18:20 | 51.62712 | -0.02112 | 8999 ft | 272 kts | 261° |
| 2026-05-06 18:20 | 51.62396 | -0.05026 | 8862 ft | 256 kts | 261° |
| 2026-05-06 18:20 | 51.62097 | -0.07788 | 8461 ft | 245 kts | 261° |
| 2026-05-06 18:20 | 51.61808 | -0.10483 | 8127 ft | 245 kts | 261° |
| 2026-05-06 18:21 | 51.61522 | -0.13183 | 8043 ft | 245 kts | 261° |
| 2026-05-06 18:21 | 51.61236 | -0.15887 | 8054 ft | 246 kts | 261° |
| 2026-05-06 18:21 | 51.60948 | -0.18588 | 8054 ft | 245 kts | 261° |
| 2026-05-06 18:21 | 51.60658 | -0.21283 | 8054 ft | 245 kts | 261° |
| 2026-05-06 18:22 | 51.60367 | -0.23948 | 8051 ft | 245 kts | 261° |
| 2026-05-06 18:22 | 51.60070 | -0.26642 | 8054 ft | 244 kts | 261° |
| 2026-05-06 18:22 | 51.59772 | -0.29326 | 8002 ft | 244 kts | 261° |
| 2026-05-06 18:22 | 51.59471 | -0.32011 | 8003 ft | 244 kts | 261° |
| 2026-05-06 18:23 | 51.59166 | -0.34718 | 7735 ft | 246 kts | 261° |
| 2026-05-06 18:23 | 51.58863 | -0.37409 | 7357 ft | 244 kts | 261° |
| 2026-05-06 18:23 | 51.58563 | -0.40088 | 7040 ft | 240 kts | 261° |
| 2026-05-06 18:23 | 51.58267 | -0.42721 | 7007 ft | 242 kts | 261° |
| 2026-05-06 18:24 | 51.57964 | -0.45379 | 7011 ft | 241 kts | 261° |
| 2026-05-06 18:24 | 51.57659 | -0.48036 | 7002 ft | 241 kts | 261° |
| 2026-05-06 18:24 | 51.57353 | -0.50683 | 7012 ft | 241 kts | 261° |
| 2026-05-06 18:24 | 51.57044 | -0.53336 | 6957 ft | 242 kts | 261° |
| 2026-05-06 18:25 | 51.56726 | -0.56046 | 6331 ft | 252 kts | 261° |
| 2026-05-06 18:25 | 51.56400 | -0.58868 | 5682 ft | 261 kts | 261° |
| 2026-05-06 18:25 | 51.56068 | -0.61774 | 5026 ft | 268 kts | 261° |
| 2026-05-06 18:25 | 51.55731 | -0.64765 | 4369 ft | 275 kts | 261° |
| 2026-05-06 18:26 | 51.55382 | -0.67765 | 4043 ft | 268 kts | 261° |
| 2026-05-06 18:26 | 51.55042 | -0.70609 | 4001 ft | 250 kts | 261° |
| 2026-05-06 18:26 | 51.54719 | -0.73256 | 4010 ft | 232 kts | 261° |
| 2026-05-06 18:26 | 51.54404 | -0.75789 | 4008 ft | 233 kts | 261° |
| 2026-05-06 18:27 | 51.54087 | -0.78345 | 4009 ft | 233 kts | 261° |
| 2026-05-06 18:27 | 51.53773 | -0.80901 | 4010 ft | 233 kts | 261° |
| 2026-05-06 18:27 | 51.53383 | -0.83427 | 4015 ft | 235 kts | 246° |
| 2026-05-06 18:27 | 51.52361 | -0.85410 | 4010 ft | 231 kts | 213° |
| 2026-05-06 18:28 | 51.51435 | -0.86209 | 4005 ft | 223 kts | 202° |
| 2026-05-06 18:28 | 51.49974 | -0.86734 | 4008 ft | 216 kts | 183° |
| 2026-05-06 18:28 | 51.48537 | -0.86168 | 4063 ft | 216 kts | 143° |
| 2026-05-06 18:28 | 51.47599 | -0.84355 | 4349 ft | 213 kts | 111° |
| 2026-05-06 18:29 | 51.47408 | -0.82031 | 4285 ft | 211 kts | 79° |
| 2026-05-06 18:29 | 51.47559 | -0.79704 | 3987 ft | 210 kts | 84° |
| 2026-05-06 18:29 | 51.47598 | -0.77365 | 3704 ft | 209 kts | 86° |
| 2026-05-06 18:29 | 51.47613 | -0.75043 | 3434 ft | 206 kts | 86° |
| 2026-05-06 18:30 | 51.47625 | -0.72780 | 3143 ft | 200 kts | 86° |
| 2026-05-06 18:30 | 51.47637 | -0.70608 | 2880 ft | 185 kts | 86° |
| 2026-05-06 18:30 | 51.47647 | -0.68654 | 2629 ft | 172 kts | 86° |
| 2026-05-06 18:30 | 51.47659 | -0.66729 | 2404 ft | 172 kts | 86° |
| 2026-05-06 18:31 | 51.47670 | -0.64839 | 2162 ft | 172 kts | 85° |
| 2026-05-06 18:31 | 51.47681 | -0.62903 | 1925 ft | 171 kts | 86° |
| 2026-05-06 18:31 | 51.47689 | -0.61096 | 1700 ft | 162 kts | 85° |
| 2026-05-06 18:31 | 51.47699 | -0.59287 | 1474 ft | 162 kts | 87° |
| 2026-05-06 18:32 | 51.47708 | -0.57495 | 1255 ft | 161 kts | 85° |
| 2026-05-06 18:32 | 51.47715 | -0.55746 | 1043 ft | 149 kts | 86° |
| 2026-05-06 18:32 | 51.47719 | -0.54124 | 778 ft | 144 kts | 86° |
| 2026-05-06 18:32 | 51.47718 | -0.52559 | 595 ft | 138 kts | 88° |
| 2026-05-06 18:33 | 51.47730 | -0.50965 | 452 ft | 142 kts | 86° |
| 2026-05-06 18:33 | 51.47741 | -0.49454 | 252 ft | 132 kts | 87° |
| 2026-05-06 18:33 | 51.47751 | -0.48033 | 91 ft | 117 kts | 86° |
| 2026-05-06 18:33 | 51.47760 | -0.47402 | 85 ft | 9 kts | 95° |
| 2026-05-06 18:34 | 51.47748 | -0.47217 | 86 ft | 22 kts | 95° |
| 2026-05-06 18:34 | 51.47635 | -0.47040 | 91 ft | 8 kts | 147° |
| 2026-05-06 18:34 | 51.47627 | -0.47033 | 90 ft | 2 kts | 147° |
| 2026-05-06 18:34 | 51.47587 | -0.46973 | 89 ft | 15 kts | 122° |
| 2026-05-06 18:35 | 51.47499 | -0.46924 | 91 ft | 13 kts | 171° |
| 2026-05-06 18:35 | 51.47412 | -0.46885 | 89 ft | 12 kts | 166° |
| 2026-05-06 18:35 | 51.47334 | -0.46870 | 86 ft | 11 kts | 177° |
| 2026-05-06 18:35 | 51.47293 | -0.46907 | 88 ft | 5 kts | 263° |